sensor_id;sensor_type;location;lat;lon;timestamp;P1;durP1;ratioP1;P2;durP2;ratioP2
36797;SDS011;22748;8.426;99.512;2023-07-28T00:00:22;22.33;;;11.03;;
36797;SDS011;22748;8.426;99.512;2023-07-28T00:02:52;21.00;;;10.30;;
36797;SDS011;22748;8.426;99.512;2023-07-28T00:05:25;19.88;;;10.95;;
36797;SDS011;22748;8.426;99.512;2023-07-28T00:08:05;22.73;;;12.73;;
36797;SDS011;22748;8.426;99.512;2023-07-28T00:10:40;20.42;;;11.70;;
36797;SDS011;22748;8.426;99.512;2023-07-28T00:13:24;23.30;;;11.27;;
36797;SDS011;22748;8.426;99.512;2023-07-28T00:15:59;19.15;;;9.88;;
36797;SDS011;22748;8.426;99.512;2023-07-28T00:18:33;12.88;;;9.75;;
36797;SDS011;22748;8.426;99.512;2023-07-28T00:21:12;22.77;;;11.38;;
36797;SDS011;22748;8.426;99.512;2023-07-28T00:23:43;22.83;;;11.77;;
36797;SDS011;22748;8.426;99.512;2023-07-28T00:26:16;23.55;;;12.23;;
36797;SDS011;22748;8.426;99.512;2023-07-28T00:28:46;20.02;;;11.20;;
36797;SDS011;22748;8.426;99.512;2023-07-28T00:31:18;22.23;;;13.93;;
36797;SDS011;22748;8.426;99.512;2023-07-28T00:33:50;21.88;;;12.18;;
36797;SDS011;22748;8.426;99.512;2023-07-28T00:36:22;14.38;;;10.48;;
36797;SDS011;22748;8.426;99.512;2023-07-28T00:38:54;14.48;;;10.32;;
36797;SDS011;22748;8.426;99.512;2023-07-28T00:41:24;17.75;;;10.02;;
36797;SDS011;22748;8.426;99.512;2023-07-28T00:43:54;15.85;;;10.77;;
36797;SDS011;22748;8.426;99.512;2023-07-28T00:46:25;17.73;;;11.02;;
36797;SDS011;22748;8.426;99.512;2023-07-28T00:48:57;21.23;;;11.63;;
36797;SDS011;22748;8.426;99.512;2023-07-28T00:51:31;28.50;;;13.45;;
36797;SDS011;22748;8.426;99.512;2023-07-28T00:54:01;30.60;;;18.52;;
36797;SDS011;22748;8.426;99.512;2023-07-28T00:56:34;23.10;;;15.93;;
36797;SDS011;22748;8.426;99.512;2023-07-28T00:59:04;23.85;;;14.65;;
36797;SDS011;22748;8.426;99.512;2023-07-28T01:01:34;25.60;;;15.10;;
36797;SDS011;22748;8.426;99.512;2023-07-28T01:04:05;21.10;;;13.20;;
36797;SDS011;22748;8.426;99.512;2023-07-28T01:06:40;19.88;;;13.48;;
36797;SDS011;22748;8.426;99.512;2023-07-28T01:09:21;27.90;;;13.43;;
36797;SDS011;22748;8.426;99.512;2023-07-28T01:11:53;17.17;;;12.55;;
36797;SDS011;22748;8.426;99.512;2023-07-28T01:14:24;17.88;;;11.95;;
36797;SDS011;22748;8.426;99.512;2023-07-28T01:16:55;17.23;;;11.77;;
36797;SDS011;22748;8.426;99.512;2023-07-28T01:19:25;17.73;;;11.57;;
36797;SDS011;22748;8.426;99.512;2023-07-28T01:22:03;24.13;;;13.40;;
36797;SDS011;22748;8.426;99.512;2023-07-28T01:24:49;23.50;;;15.35;;
36797;SDS011;22748;8.426;99.512;2023-07-28T01:27:31;23.25;;;13.80;;
36797;SDS011;22748;8.426;99.512;2023-07-28T01:30:03;19.60;;;13.27;;
36797;SDS011;22748;8.426;99.512;2023-07-28T01:35:04;18.13;;;12.57;;
36797;SDS011;22748;8.426;99.512;2023-07-28T01:37:39;19.33;;;12.70;;
36797;SDS011;22748;8.426;99.512;2023-07-28T01:40:11;23.70;;;13.32;;
36797;SDS011;22748;8.426;99.512;2023-07-28T01:42:43;24.13;;;11.57;;
36797;SDS011;22748;8.426;99.512;2023-07-28T01:45:14;19.67;;;9.93;;
36797;SDS011;22748;8.426;99.512;2023-07-28T01:47:45;22.35;;;10.90;;
36797;SDS011;22748;8.426;99.512;2023-07-28T01:50:15;18.25;;;10.02;;
36797;SDS011;22748;8.426;99.512;2023-07-28T01:52:45;17.48;;;8.63;;
36797;SDS011;22748;8.426;99.512;2023-07-28T01:55:21;18.05;;;8.23;;
36797;SDS011;22748;8.426;99.512;2023-07-28T01:57:53;18.55;;;6.78;;
36797;SDS011;22748;8.426;99.512;2023-07-28T02:00:24;21.05;;;6.30;;
36797;SDS011;22748;8.426;99.512;2023-07-28T02:02:56;16.83;;;6.25;;
36797;SDS011;22748;8.426;99.512;2023-07-28T02:05:27;25.83;;;7.05;;
36797;SDS011;22748;8.426;99.512;2023-07-28T02:07:59;19.73;;;7.20;;
36797;SDS011;22748;8.426;99.512;2023-07-28T02:10:30;17.40;;;6.60;;
36797;SDS011;22748;8.426;99.512;2023-07-28T02:13:03;14.98;;;6.15;;
36797;SDS011;22748;8.426;99.512;2023-07-28T02:15:34;20.65;;;6.57;;
36797;SDS011;22748;8.426;99.512;2023-07-28T02:18:06;24.15;;;7.88;;
36797;SDS011;22748;8.426;99.512;2023-07-28T02:20:36;23.77;;;7.78;;
36797;SDS011;22748;8.426;99.512;2023-07-28T02:23:08;20.13;;;7.13;;
36797;SDS011;22748;8.426;99.512;2023-07-28T02:25:39;18.55;;;7.03;;
36797;SDS011;22748;8.426;99.512;2023-07-28T02:30:41;18.73;;;8.20;;
36797;SDS011;22748;8.426;99.512;2023-07-28T02:33:13;24.27;;;7.38;;
36797;SDS011;22748;8.426;99.512;2023-07-28T02:35:43;23.30;;;6.75;;
36797;SDS011;22748;8.426;99.512;2023-07-28T02:38:14;17.35;;;6.57;;
36797;SDS011;22748;8.426;99.512;2023-07-28T02:40:51;14.70;;;6.53;;
36797;SDS011;22748;8.426;99.512;2023-07-28T02:48:23;20.90;;;6.63;;
36797;SDS011;22748;8.426;99.512;2023-07-28T02:50:55;22.90;;;7.00;;
36797;SDS011;22748;8.426;99.512;2023-07-28T02:53:25;19.80;;;7.32;;
36797;SDS011;22748;8.426;99.512;2023-07-28T02:55:56;21.15;;;8.00;;
36797;SDS011;22748;8.426;99.512;2023-07-28T02:58:28;22.48;;;7.70;;
36797;SDS011;22748;8.426;99.512;2023-07-28T03:01:02;14.30;;;7.13;;
36797;SDS011;22748;8.426;99.512;2023-07-28T03:03:32;22.48;;;7.72;;
36797;SDS011;22748;8.426;99.512;2023-07-28T03:06:13;15.63;;;7.28;;
36797;SDS011;22748;8.426;99.512;2023-07-28T03:08:44;15.55;;;7.38;;
36797;SDS011;22748;8.426;99.512;2023-07-28T03:11:16;21.70;;;7.18;;
36797;SDS011;22748;8.426;99.512;2023-07-28T03:13:54;25.70;;;7.28;;
36797;SDS011;22748;8.426;99.512;2023-07-28T03:16:25;20.38;;;6.53;;
36797;SDS011;22748;8.426;99.512;2023-07-28T03:18:59;14.32;;;6.07;;
36797;SDS011;22748;8.426;99.512;2023-07-28T03:21:31;15.75;;;6.93;;
36797;SDS011;22748;8.426;99.512;2023-07-28T03:24:04;15.25;;;6.60;;
36797;SDS011;22748;8.426;99.512;2023-07-28T03:26:44;13.82;;;6.10;;
36797;SDS011;22748;8.426;99.512;2023-07-28T03:29:17;12.50;;;5.88;;
36797;SDS011;22748;8.426;99.512;2023-07-28T03:31:49;13.18;;;6.18;;
36797;SDS011;22748;8.426;99.512;2023-07-28T03:34:20;11.98;;;5.50;;
36797;SDS011;22748;8.426;99.512;2023-07-28T03:36:50;16.67;;;6.68;;
36797;SDS011;22748;8.426;99.512;2023-07-28T03:39:21;16.13;;;6.15;;
36797;SDS011;22748;8.426;99.512;2023-07-28T03:41:52;19.95;;;6.53;;
36797;SDS011;22748;8.426;99.512;2023-07-28T03:44:25;16.92;;;6.50;;
36797;SDS011;22748;8.426;99.512;2023-07-28T03:46:55;19.70;;;6.95;;
36797;SDS011;22748;8.426;99.512;2023-07-28T03:49:25;14.05;;;5.60;;
36797;SDS011;22748;8.426;99.512;2023-07-28T03:52:01;13.43;;;5.82;;
36797;SDS011;22748;8.426;99.512;2023-07-28T03:54:32;12.95;;;5.75;;
36797;SDS011;22748;8.426;99.512;2023-07-28T03:59:37;16.40;;;6.07;;
36797;SDS011;22748;8.426;99.512;2023-07-28T04:04:43;20.02;;;6.47;;
36797;SDS011;22748;8.426;99.512;2023-07-28T04:07:16;13.57;;;6.30;;
36797;SDS011;22748;8.426;99.512;2023-07-28T04:09:49;14.55;;;6.28;;
36797;SDS011;22748;8.426;99.512;2023-07-28T04:12:19;19.27;;;6.67;;
36797;SDS011;22748;8.426;99.512;2023-07-28T04:14:52;13.25;;;5.40;;
36797;SDS011;22748;8.426;99.512;2023-07-28T04:17:22;17.25;;;5.75;;
36797;SDS011;22748;8.426;99.512;2023-07-28T04:19:53;16.48;;;5.95;;
36797;SDS011;22748;8.426;99.512;2023-07-28T04:22:24;9.40;;;4.40;;
36797;SDS011;22748;8.426;99.512;2023-07-28T04:27:24;16.67;;;5.82;;
36797;SDS011;22748;8.426;99.512;2023-07-28T04:29:56;14.32;;;5.50;;
36797;SDS011;22748;8.426;99.512;2023-07-28T04:32:33;17.65;;;5.78;;
36797;SDS011;22748;8.426;99.512;2023-07-28T04:37:35;11.97;;;5.30;;
36797;SDS011;22748;8.426;99.512;2023-07-28T04:40:06;15.48;;;4.82;;
36797;SDS011;22748;8.426;99.512;2023-07-28T04:42:37;14.63;;;5.30;;
36797;SDS011;22748;8.426;99.512;2023-07-28T04:45:10;12.55;;;5.07;;
36797;SDS011;22748;8.426;99.512;2023-07-28T04:47:41;13.88;;;5.15;;
36797;SDS011;22748;8.426;99.512;2023-07-28T04:50:12;14.90;;;5.20;;
36797;SDS011;22748;8.426;99.512;2023-07-28T04:52:42;12.35;;;4.35;;
36797;SDS011;22748;8.426;99.512;2023-07-28T04:55:13;13.55;;;5.40;;
36797;SDS011;22748;8.426;99.512;2023-07-28T05:00:17;10.90;;;4.82;;
36797;SDS011;22748;8.426;99.512;2023-07-28T05:02:47;13.52;;;4.70;;
36797;SDS011;22748;8.426;99.512;2023-07-28T05:05:17;11.25;;;5.18;;
36797;SDS011;22748;8.426;99.512;2023-07-28T05:07:48;10.88;;;4.72;;
36797;SDS011;22748;8.426;99.512;2023-07-28T05:10:17;14.18;;;4.88;;
36797;SDS011;22748;8.426;99.512;2023-07-28T05:12:48;13.02;;;4.50;;
36797;SDS011;22748;8.426;99.512;2023-07-28T05:15:21;15.20;;;5.40;;
36797;SDS011;22748;8.426;99.512;2023-07-28T05:17:52;13.25;;;4.45;;
36797;SDS011;22748;8.426;99.512;2023-07-28T05:22:52;13.13;;;4.70;;
36797;SDS011;22748;8.426;99.512;2023-07-28T05:25:22;12.27;;;5.22;;
36797;SDS011;22748;8.426;99.512;2023-07-28T05:27:57;15.48;;;4.55;;
36797;SDS011;22748;8.426;99.512;2023-07-28T05:30:34;13.55;;;4.05;;
36797;SDS011;22748;8.426;99.512;2023-07-28T05:33:05;15.85;;;4.65;;
36797;SDS011;22748;8.426;99.512;2023-07-28T05:35:38;7.97;;;3.47;;
36797;SDS011;22748;8.426;99.512;2023-07-28T05:38:08;12.95;;;4.38;;
36797;SDS011;22748;8.426;99.512;2023-07-28T05:40:38;10.57;;;3.72;;
36797;SDS011;22748;8.426;99.512;2023-07-28T05:43:10;7.40;;;3.70;;
36797;SDS011;22748;8.426;99.512;2023-07-28T05:45:48;11.80;;;4.60;;
36797;SDS011;22748;8.426;99.512;2023-07-28T05:48:18;23.83;;;6.53;;
36797;SDS011;22748;8.426;99.512;2023-07-28T05:50:53;14.60;;;4.47;;
36797;SDS011;22748;8.426;99.512;2023-07-28T05:53:24;10.07;;;4.30;;
36797;SDS011;22748;8.426;99.512;2023-07-28T05:55:54;14.70;;;3.80;;
36797;SDS011;22748;8.426;99.512;2023-07-28T05:58:25;15.37;;;4.57;;
36797;SDS011;22748;8.426;99.512;2023-07-28T06:00:57;12.15;;;4.80;;
36797;SDS011;22748;8.426;99.512;2023-07-28T06:03:30;12.68;;;4.35;;
36797;SDS011;22748;8.426;99.512;2023-07-28T06:06:01;10.68;;;4.03;;
36797;SDS011;22748;8.426;99.512;2023-07-28T06:08:31;8.32;;;4.05;;
36797;SDS011;22748;8.426;99.512;2023-07-28T06:11:03;7.15;;;3.05;;
36797;SDS011;22748;8.426;99.512;2023-07-28T06:13:39;7.43;;;2.95;;
36797;SDS011;22748;8.426;99.512;2023-07-28T06:16:14;5.82;;;2.53;;
36797;SDS011;22748;8.426;99.512;2023-07-28T06:18:47;5.55;;;2.60;;
36797;SDS011;22748;8.426;99.512;2023-07-28T06:21:19;10.73;;;3.40;;
36797;SDS011;22748;8.426;99.512;2023-07-28T06:26:18;6.18;;;2.95;;
36797;SDS011;22748;8.426;99.512;2023-07-28T06:28:51;7.10;;;3.25;;
36797;SDS011;22748;8.426;99.512;2023-07-28T06:31:27;7.43;;;3.35;;
36797;SDS011;22748;8.426;99.512;2023-07-28T06:33:57;15.48;;;3.35;;
36797;SDS011;22748;8.426;99.512;2023-07-28T06:36:28;7.13;;;4.45;;
36797;SDS011;22748;8.426;99.512;2023-07-28T06:38:59;10.55;;;4.72;;
36797;SDS011;22748;8.426;99.512;2023-07-28T06:41:30;13.68;;;4.82;;
36797;SDS011;22748;8.426;99.512;2023-07-28T06:44:03;11.77;;;4.70;;
36797;SDS011;22748;8.426;99.512;2023-07-28T06:46:37;9.35;;;5.10;;
36797;SDS011;22748;8.426;99.512;2023-07-28T06:49:06;14.13;;;5.22;;
36797;SDS011;22748;8.426;99.512;2023-07-28T06:51:38;17.30;;;5.43;;
36797;SDS011;22748;8.426;99.512;2023-07-28T06:56:38;14.85;;;4.82;;
36797;SDS011;22748;8.426;99.512;2023-07-28T06:59:08;20.67;;;4.93;;
36797;SDS011;22748;8.426;99.512;2023-07-28T07:01:41;24.13;;;6.63;;
36797;SDS011;22748;8.426;99.512;2023-07-28T07:04:11;11.88;;;4.88;;
36797;SDS011;22748;8.426;99.512;2023-07-28T07:06:41;29.27;;;5.50;;
36797;SDS011;22748;8.426;99.512;2023-07-28T07:09:11;12.35;;;4.65;;
36797;SDS011;22748;8.426;99.512;2023-07-28T07:11:43;18.85;;;4.85;;
36797;SDS011;22748;8.426;99.512;2023-07-28T07:14:14;15.23;;;4.88;;
36797;SDS011;22748;8.426;99.512;2023-07-28T07:16:48;12.23;;;4.60;;
36797;SDS011;22748;8.426;99.512;2023-07-28T07:19:19;16.77;;;5.35;;
36797;SDS011;22748;8.426;99.512;2023-07-28T07:21:48;12.85;;;4.25;;
36797;SDS011;22748;8.426;99.512;2023-07-28T07:24:18;21.05;;;5.00;;
36797;SDS011;22748;8.426;99.512;2023-07-28T07:26:52;11.27;;;4.55;;
36797;SDS011;22748;8.426;99.512;2023-07-28T07:29:25;14.07;;;4.70;;
36797;SDS011;22748;8.426;99.512;2023-07-28T07:31:57;21.65;;;5.40;;
36797;SDS011;22748;8.426;99.512;2023-07-28T07:34:29;14.85;;;4.95;;
36797;SDS011;22748;8.426;99.512;2023-07-28T07:37:04;18.88;;;5.53;;
36797;SDS011;22748;8.426;99.512;2023-07-28T07:39:35;18.27;;;5.03;;
36797;SDS011;22748;8.426;99.512;2023-07-28T07:42:09;14.98;;;4.22;;
36797;SDS011;22748;8.426;99.512;2023-07-28T07:44:40;14.50;;;4.10;;
36797;SDS011;22748;8.426;99.512;2023-07-28T07:47:15;22.85;;;4.47;;
36797;SDS011;22748;8.426;99.512;2023-07-28T07:49:46;12.07;;;4.45;;
36797;SDS011;22748;8.426;99.512;2023-07-28T07:52:16;11.02;;;4.05;;
36797;SDS011;22748;8.426;99.512;2023-07-28T07:54:46;10.40;;;4.03;;
36797;SDS011;22748;8.426;99.512;2023-07-28T07:57:16;11.13;;;4.60;;
36797;SDS011;22748;8.426;99.512;2023-07-28T07:59:46;18.48;;;5.03;;
36797;SDS011;22748;8.426;99.512;2023-07-28T08:02:19;17.23;;;6.40;;
36797;SDS011;22748;8.426;99.512;2023-07-28T08:04:51;9.73;;;5.32;;
36797;SDS011;22748;8.426;99.512;2023-07-28T08:07:21;11.65;;;4.82;;
36797;SDS011;22748;8.426;99.512;2023-07-28T08:09:53;10.10;;;4.20;;
36797;SDS011;22748;8.426;99.512;2023-07-28T08:12:27;10.88;;;4.07;;
36797;SDS011;22748;8.426;99.512;2023-07-28T08:17:29;9.13;;;5.65;;
36797;SDS011;22748;8.426;99.512;2023-07-28T08:19:59;11.45;;;5.00;;
36797;SDS011;22748;8.426;99.512;2023-07-28T08:22:29;9.60;;;4.20;;
36797;SDS011;22748;8.426;99.512;2023-07-28T08:25:01;9.23;;;6.75;;
36797;SDS011;22748;8.426;99.512;2023-07-28T08:27:35;17.13;;;11.27;;
36797;SDS011;22748;8.426;99.512;2023-07-28T08:30:06;22.80;;;20.05;;
36797;SDS011;22748;8.426;99.512;2023-07-28T08:32:41;32.13;;;26.58;;
36797;SDS011;22748;8.426;99.512;2023-07-28T08:35:13;21.55;;;14.57;;
36797;SDS011;22748;8.426;99.512;2023-07-28T08:37:44;18.00;;;14.55;;
36797;SDS011;22748;8.426;99.512;2023-07-28T08:40:15;11.88;;;6.82;;
36797;SDS011;22748;8.426;99.512;2023-07-28T08:42:47;15.68;;;6.72;;
36797;SDS011;22748;8.426;99.512;2023-07-28T08:45:20;50.38;;;35.83;;
36797;SDS011;22748;8.426;99.512;2023-07-28T08:47:55;40.20;;;28.00;;
36797;SDS011;22748;8.426;99.512;2023-07-28T08:50:26;31.33;;;18.48;;
36797;SDS011;22748;8.426;99.512;2023-07-28T08:52:57;16.15;;;10.30;;
36797;SDS011;22748;8.426;99.512;2023-07-28T08:55:35;19.75;;;14.18;;
36797;SDS011;22748;8.426;99.512;2023-07-28T08:58:22;12.38;;;8.73;;
36797;SDS011;22748;8.426;99.512;2023-07-28T09:00:53;11.48;;;6.22;;
36797;SDS011;22748;8.426;99.512;2023-07-28T09:03:31;14.00;;;6.40;;
36797;SDS011;22748;8.426;99.512;2023-07-28T09:08:39;11.65;;;5.78;;
36797;SDS011;22748;8.426;99.512;2023-07-28T09:11:17;15.88;;;8.50;;
36797;SDS011;22748;8.426;99.512;2023-07-28T09:13:46;10.20;;;5.18;;
36797;SDS011;22748;8.426;99.512;2023-07-28T09:16:23;12.27;;;4.78;;
36797;SDS011;22748;8.426;99.512;2023-07-28T09:19:06;8.52;;;4.63;;
36797;SDS011;22748;8.426;99.512;2023-07-28T09:21:38;9.63;;;6.07;;
36797;SDS011;22748;8.426;99.512;2023-07-28T09:24:09;10.02;;;6.32;;
36797;SDS011;22748;8.426;99.512;2023-07-28T09:26:40;11.57;;;6.47;;
36797;SDS011;22748;8.426;99.512;2023-07-28T09:29:12;11.57;;;7.07;;
36797;SDS011;22748;8.426;99.512;2023-07-28T09:31:44;14.02;;;7.38;;
36797;SDS011;22748;8.426;99.512;2023-07-28T09:34:25;13.20;;;7.57;;
36797;SDS011;22748;8.426;99.512;2023-07-28T09:36:55;13.35;;;9.30;;
36797;SDS011;22748;8.426;99.512;2023-07-28T09:39:26;12.90;;;10.60;;
36797;SDS011;22748;8.426;99.512;2023-07-28T09:41:57;16.73;;;10.63;;
36797;SDS011;22748;8.426;99.512;2023-07-28T09:44:30;12.50;;;9.05;;
36797;SDS011;22748;8.426;99.512;2023-07-28T09:47:00;9.75;;;6.50;;
36797;SDS011;22748;8.426;99.512;2023-07-28T09:49:34;9.75;;;7.25;;
36797;SDS011;22748;8.426;99.512;2023-07-28T09:52:09;11.20;;;7.43;;
36797;SDS011;22748;8.426;99.512;2023-07-28T09:54:44;11.25;;;7.30;;
36797;SDS011;22748;8.426;99.512;2023-07-28T09:57:19;11.65;;;7.05;;
36797;SDS011;22748;8.426;99.512;2023-07-28T09:59:51;9.18;;;7.47;;
36797;SDS011;22748;8.426;99.512;2023-07-28T10:02:23;10.48;;;6.55;;
36797;SDS011;22748;8.426;99.512;2023-07-28T10:04:57;11.70;;;6.78;;
36797;SDS011;22748;8.426;99.512;2023-07-28T10:07:28;14.15;;;7.30;;
36797;SDS011;22748;8.426;99.512;2023-07-28T10:10:00;14.55;;;9.57;;
36797;SDS011;22748;8.426;99.512;2023-07-28T10:12:40;15.90;;;9.63;;
36797;SDS011;22748;8.426;99.512;2023-07-28T10:15:12;17.15;;;10.10;;
36797;SDS011;22748;8.426;99.512;2023-07-28T10:17:44;9.88;;;6.32;;
36797;SDS011;22748;8.426;99.512;2023-07-28T10:20:33;22.10;;;11.05;;
36797;SDS011;22748;8.426;99.512;2023-07-28T10:23:14;14.07;;;10.07;;
36797;SDS011;22748;8.426;99.512;2023-07-28T10:25:47;18.73;;;10.98;;
36797;SDS011;22748;8.426;99.512;2023-07-28T10:28:33;25.13;;;9.40;;
36797;SDS011;22748;8.426;99.512;2023-07-28T10:31:08;17.65;;;9.00;;
36797;SDS011;22748;8.426;99.512;2023-07-28T10:33:46;13.20;;;5.82;;
36797;SDS011;22748;8.426;99.512;2023-07-28T10:36:32;16.35;;;6.00;;
36797;SDS011;22748;8.426;99.512;2023-07-28T10:39:12;12.55;;;5.40;;
36797;SDS011;22748;8.426;99.512;2023-07-28T10:44:34;9.40;;;6.03;;
36797;SDS011;22748;8.426;99.512;2023-07-28T10:47:07;14.07;;;7.70;;
36797;SDS011;22748;8.426;99.512;2023-07-28T10:49:47;11.40;;;5.72;;
36797;SDS011;22748;8.426;99.512;2023-07-28T10:52:19;7.40;;;5.43;;
36797;SDS011;22748;8.426;99.512;2023-07-28T10:54:52;13.13;;;5.40;;
36797;SDS011;22748;8.426;99.512;2023-07-28T10:57:24;12.48;;;5.93;;
36797;SDS011;22748;8.426;99.512;2023-07-28T10:59:59;9.82;;;5.30;;
36797;SDS011;22748;8.426;99.512;2023-07-28T11:02:37;8.97;;;5.00;;
36797;SDS011;22748;8.426;99.512;2023-07-28T11:05:12;10.52;;;5.18;;
36797;SDS011;22748;8.426;99.512;2023-07-28T11:07:45;11.50;;;5.20;;
36797;SDS011;22748;8.426;99.512;2023-07-28T11:10:17;13.70;;;5.20;;
36797;SDS011;22748;8.426;99.512;2023-07-28T11:12:48;10.13;;;5.72;;
36797;SDS011;22748;8.426;99.512;2023-07-28T11:15:22;12.95;;;5.68;;
36797;SDS011;22748;8.426;99.512;2023-07-28T11:17:54;9.57;;;5.57;;
36797;SDS011;22748;8.426;99.512;2023-07-28T11:20:25;10.43;;;6.00;;
36797;SDS011;22748;8.426;99.512;2023-07-28T11:23:04;11.18;;;5.10;;
36797;SDS011;22748;8.426;99.512;2023-07-28T11:25:35;15.57;;;5.63;;
36797;SDS011;22748;8.426;99.512;2023-07-28T11:28:06;8.57;;;4.63;;
36797;SDS011;22748;8.426;99.512;2023-07-28T11:30:38;12.82;;;6.43;;
36797;SDS011;22748;8.426;99.512;2023-07-28T11:33:10;10.35;;;5.68;;
36797;SDS011;22748;8.426;99.512;2023-07-28T11:35:44;10.25;;;6.13;;
36797;SDS011;22748;8.426;99.512;2023-07-28T11:38:18;8.95;;;5.10;;
36797;SDS011;22748;8.426;99.512;2023-07-28T11:40:49;10.50;;;5.90;;
36797;SDS011;22748;8.426;99.512;2023-07-28T11:43:26;14.52;;;6.28;;
36797;SDS011;22748;8.426;99.512;2023-07-28T11:45:58;12.50;;;5.70;;
36797;SDS011;22748;8.426;99.512;2023-07-28T11:48:29;11.52;;;5.95;;
36797;SDS011;22748;8.426;99.512;2023-07-28T11:51:00;10.65;;;7.00;;
36797;SDS011;22748;8.426;99.512;2023-07-28T11:53:34;9.15;;;5.70;;
36797;SDS011;22748;8.426;99.512;2023-07-28T11:56:05;20.98;;;9.07;;
36797;SDS011;22748;8.426;99.512;2023-07-28T11:58:37;14.85;;;9.38;;
36797;SDS011;22748;8.426;99.512;2023-07-28T12:01:10;22.17;;;9.00;;
36797;SDS011;22748;8.426;99.512;2023-07-28T12:03:41;19.48;;;8.95;;
36797;SDS011;22748;8.426;99.512;2023-07-28T12:08:41;14.05;;;8.90;;
36797;SDS011;22748;8.426;99.512;2023-07-28T12:11:14;11.48;;;7.95;;
36797;SDS011;22748;8.426;99.512;2023-07-28T12:13:50;14.50;;;8.48;;
36797;SDS011;22748;8.426;99.512;2023-07-28T12:16:38;17.00;;;8.90;;
36797;SDS011;22748;8.426;99.512;2023-07-28T12:19:10;12.85;;;8.57;;
36797;SDS011;22748;8.426;99.512;2023-07-28T12:21:41;14.90;;;10.40;;
36797;SDS011;22748;8.426;99.512;2023-07-28T12:24:16;16.20;;;11.80;;
36797;SDS011;22748;8.426;99.512;2023-07-28T12:26:46;18.30;;;12.23;;
36797;SDS011;22748;8.426;99.512;2023-07-28T12:29:17;21.67;;;14.10;;
36797;SDS011;22748;8.426;99.512;2023-07-28T12:31:48;22.33;;;15.48;;
36797;SDS011;22748;8.426;99.512;2023-07-28T12:34:20;28.42;;;22.40;;
36797;SDS011;22748;8.426;99.512;2023-07-28T12:36:51;32.85;;;26.92;;
36797;SDS011;22748;8.426;99.512;2023-07-28T12:39:24;38.10;;;28.02;;
36797;SDS011;22748;8.426;99.512;2023-07-28T12:41:55;40.45;;;29.45;;
36797;SDS011;22748;8.426;99.512;2023-07-28T12:44:25;35.15;;;26.65;;
36797;SDS011;22748;8.426;99.512;2023-07-28T12:46:58;32.25;;;21.25;;
36797;SDS011;22748;8.426;99.512;2023-07-28T12:49:30;31.77;;;18.80;;
36797;SDS011;22748;8.426;99.512;2023-07-28T12:52:04;26.85;;;17.33;;
36797;SDS011;22748;8.426;99.512;2023-07-28T12:54:38;25.33;;;16.63;;
36797;SDS011;22748;8.426;99.512;2023-07-28T12:57:08;23.05;;;16.65;;
36797;SDS011;22748;8.426;99.512;2023-07-28T12:59:42;24.50;;;15.93;;
36797;SDS011;22748;8.426;99.512;2023-07-28T13:02:12;24.67;;;16.83;;
36797;SDS011;22748;8.426;99.512;2023-07-28T13:04:43;28.73;;;19.90;;
36797;SDS011;22748;8.426;99.512;2023-07-28T13:07:13;37.63;;;30.03;;
36797;SDS011;22748;8.426;99.512;2023-07-28T13:09:47;31.38;;;22.60;;
36797;SDS011;22748;8.426;99.512;2023-07-28T13:12:18;26.67;;;16.50;;
36797;SDS011;22748;8.426;99.512;2023-07-28T13:14:49;23.38;;;13.88;;
36797;SDS011;22748;8.426;99.512;2023-07-28T13:17:20;25.30;;;13.55;;
36797;SDS011;22748;8.426;99.512;2023-07-28T13:19:50;24.85;;;13.60;;
36797;SDS011;22748;8.426;99.512;2023-07-28T13:22:26;22.85;;;15.50;;
36797;SDS011;22748;8.426;99.512;2023-07-28T13:25:01;18.42;;;11.93;;
36797;SDS011;22748;8.426;99.512;2023-07-28T13:27:33;22.95;;;13.95;;
36797;SDS011;22748;8.426;99.512;2023-07-28T13:30:03;18.73;;;12.57;;
36797;SDS011;22748;8.426;99.512;2023-07-28T13:35:03;22.60;;;14.20;;
36797;SDS011;22748;8.426;99.512;2023-07-28T13:37:34;16.08;;;10.90;;
36797;SDS011;22748;8.426;99.512;2023-07-28T13:40:09;15.95;;;10.70;;
36797;SDS011;22748;8.426;99.512;2023-07-28T13:42:40;17.95;;;10.15;;
36797;SDS011;22748;8.426;99.512;2023-07-28T13:45:16;19.55;;;8.82;;
36797;SDS011;22748;8.426;99.512;2023-07-28T13:47:47;15.88;;;8.60;;
36797;SDS011;22748;8.426;99.512;2023-07-28T14:02:35;38.67;;;26.20;;
36797;SDS011;22748;8.426;99.512;2023-07-28T14:05:07;36.45;;;27.75;;
36797;SDS011;22748;8.426;99.512;2023-07-28T14:07:37;40.08;;;29.70;;
36797;SDS011;22748;8.426;99.512;2023-07-28T14:10:09;27.00;;;18.42;;
36797;SDS011;22748;8.426;99.512;2023-07-28T14:15:10;24.02;;;14.10;;
36797;SDS011;22748;8.426;99.512;2023-07-28T14:17:44;21.17;;;13.63;;
36797;SDS011;22748;8.426;99.512;2023-07-28T14:20:14;19.92;;;12.43;;
36797;SDS011;22748;8.426;99.512;2023-07-28T14:22:44;16.93;;;11.00;;
36797;SDS011;22748;8.426;99.512;2023-07-28T14:25:14;14.75;;;10.23;;
36797;SDS011;22748;8.426;99.512;2023-07-28T14:27:46;16.25;;;10.57;;
36797;SDS011;22748;8.426;99.512;2023-07-28T14:30:16;15.75;;;10.65;;
36797;SDS011;22748;8.426;99.512;2023-07-28T14:32:50;15.27;;;10.40;;
36797;SDS011;22748;8.426;99.512;2023-07-28T14:35:21;14.80;;;9.48;;
36797;SDS011;22748;8.426;99.512;2023-07-28T14:37:53;18.33;;;9.52;;
36797;SDS011;22748;8.426;99.512;2023-07-28T14:40:24;14.23;;;9.90;;
36797;SDS011;22748;8.426;99.512;2023-07-28T14:42:55;16.58;;;9.20;;
36797;SDS011;22748;8.426;99.512;2023-07-28T14:45:26;15.13;;;8.73;;
36797;SDS011;22748;8.426;99.512;2023-07-28T14:47:57;17.65;;;9.77;;
36797;SDS011;22748;8.426;99.512;2023-07-28T14:50:29;11.75;;;8.48;;
36797;SDS011;22748;8.426;99.512;2023-07-28T14:52:59;16.75;;;8.30;;
36797;SDS011;22748;8.426;99.512;2023-07-28T14:55:30;14.95;;;8.80;;
36797;SDS011;22748;8.426;99.512;2023-07-28T14:58:01;17.08;;;8.60;;
36797;SDS011;22748;8.426;99.512;2023-07-28T15:00:31;17.15;;;8.45;;
36797;SDS011;22748;8.426;99.512;2023-07-28T15:03:06;12.25;;;7.10;;
36797;SDS011;22748;8.426;99.512;2023-07-28T15:05:37;13.55;;;8.02;;
36797;SDS011;22748;8.426;99.512;2023-07-28T15:08:09;12.35;;;7.97;;
36797;SDS011;22748;8.426;99.512;2023-07-28T15:10:43;13.27;;;8.30;;
36797;SDS011;22748;8.426;99.512;2023-07-28T15:13:14;17.13;;;8.30;;
36797;SDS011;22748;8.426;99.512;2023-07-28T15:15:46;14.73;;;8.35;;
36797;SDS011;22748;8.426;99.512;2023-07-28T15:18:19;13.95;;;9.63;;
36797;SDS011;22748;8.426;99.512;2023-07-28T15:20:50;16.65;;;9.82;;
36797;SDS011;22748;8.426;99.512;2023-07-28T15:23:22;12.48;;;9.43;;
36797;SDS011;22748;8.426;99.512;2023-07-28T15:25:53;17.20;;;9.88;;
36797;SDS011;22748;8.426;99.512;2023-07-28T15:28:28;15.82;;;9.07;;
36797;SDS011;22748;8.426;99.512;2023-07-28T15:30:58;18.45;;;10.30;;
36797;SDS011;22748;8.426;99.512;2023-07-28T15:33:31;18.17;;;9.05;;
36797;SDS011;22748;8.426;99.512;2023-07-28T15:36:02;13.55;;;9.30;;
36797;SDS011;22748;8.426;99.512;2023-07-28T15:38:33;16.92;;;9.30;;
36797;SDS011;22748;8.426;99.512;2023-07-28T15:41:04;13.00;;;8.88;;
36797;SDS011;22748;8.426;99.512;2023-07-28T15:43:35;15.73;;;9.13;;
36797;SDS011;22748;8.426;99.512;2023-07-28T15:46:06;12.43;;;8.32;;
36797;SDS011;22748;8.426;99.512;2023-07-28T15:48:37;13.98;;;9.35;;
36797;SDS011;22748;8.426;99.512;2023-07-28T15:51:08;12.40;;;8.35;;
36797;SDS011;22748;8.426;99.512;2023-07-28T15:53:39;14.75;;;8.55;;
36797;SDS011;22748;8.426;99.512;2023-07-28T15:56:10;11.27;;;8.35;;
36797;SDS011;22748;8.426;99.512;2023-07-28T15:58:40;13.80;;;8.60;;